sensor_id;sensor_type;location;lat;lon;timestamp;P1;durP1;ratioP1;P2;durP2;ratioP2
21099;SDS011;10708;50.824;4.408;2022-11-20T00:04:54;113.83;;;37.13;;
21099;SDS011;10708;50.824;4.408;2022-11-20T00:09:56;114.57;;;38.30;;
21099;SDS011;10708;50.824;4.408;2022-11-20T00:14:58;105.40;;;36.50;;
21099;SDS011;10708;50.824;4.408;2022-11-20T00:20:02;122.53;;;38.13;;
21099;SDS011;10708;50.824;4.408;2022-11-20T00:25:06;122.33;;;38.63;;
21099;SDS011;10708;50.824;4.408;2022-11-20T00:30:09;123.40;;;39.10;;
21099;SDS011;10708;50.824;4.408;2022-11-20T00:35:13;111.10;;;37.00;;
21099;SDS011;10708;50.824;4.408;2022-11-20T00:40:16;136.63;;;38.93;;
21099;SDS011;10708;50.824;4.408;2022-11-20T00:45:18;104.47;;;37.07;;
21099;SDS011;10708;50.824;4.408;2022-11-20T00:50:22;101.60;;;37.57;;
21099;SDS011;10708;50.824;4.408;2022-11-20T00:55:24;105.10;;;37.10;;
21099;SDS011;10708;50.824;4.408;2022-11-20T01:00:26;102.27;;;36.43;;
21099;SDS011;10708;50.824;4.408;2022-11-20T01:05:33;88.23;;;35.23;;
21099;SDS011;10708;50.824;4.408;2022-11-20T01:10:36;98.60;;;34.40;;
21099;SDS011;10708;50.824;4.408;2022-11-20T01:15:38;106.27;;;35.33;;
21099;SDS011;10708;50.824;4.408;2022-11-20T01:20:42;97.00;;;34.90;;
21099;SDS011;10708;50.824;4.408;2022-11-20T01:25:44;105.00;;;37.33;;
21099;SDS011;10708;50.824;4.408;2022-11-20T01:30:46;94.07;;;33.47;;
21099;SDS011;10708;50.824;4.408;2022-11-20T01:35:50;113.80;;;33.43;;
21099;SDS011;10708;50.824;4.408;2022-11-20T01:40:55;102.27;;;37.27;;
21099;SDS011;10708;50.824;4.408;2022-11-20T01:45:59;95.97;;;36.13;;
21099;SDS011;10708;50.824;4.408;2022-11-20T01:51:21;101.67;;;35.40;;
21099;SDS011;10708;50.824;4.408;2022-11-20T01:56:27;101.97;;;34.77;;
21099;SDS011;10708;50.824;4.408;2022-11-20T02:01:33;109.30;;;37.53;;
21099;SDS011;10708;50.824;4.408;2022-11-20T02:06:38;111.80;;;37.43;;
21099;SDS011;10708;50.824;4.408;2022-11-20T02:11:44;98.93;;;35.53;;
21099;SDS011;10708;50.824;4.408;2022-11-20T02:16:47;108.67;;;37.70;;
21099;SDS011;10708;50.824;4.408;2022-11-20T02:21:54;110.33;;;35.70;;
21099;SDS011;10708;50.824;4.408;2022-11-20T02:27:04;129.07;;;39.47;;
21099;SDS011;10708;50.824;4.408;2022-11-20T02:32:17;90.30;;;32.80;;
21099;SDS011;10708;50.824;4.408;2022-11-20T02:37:21;98.53;;;31.97;;
21099;SDS011;10708;50.824;4.408;2022-11-20T02:42:25;107.13;;;32.43;;
21099;SDS011;10708;50.824;4.408;2022-11-20T02:47:27;103.97;;;30.60;;
21099;SDS011;10708;50.824;4.408;2022-11-20T02:52:29;94.23;;;30.47;;
21099;SDS011;10708;50.824;4.408;2022-11-20T02:57:33;84.20;;;28.67;;
21099;SDS011;10708;50.824;4.408;2022-11-20T03:02:35;86.10;;;28.27;;
21099;SDS011;10708;50.824;4.408;2022-11-20T03:07:38;78.97;;;26.80;;
21099;SDS011;10708;50.824;4.408;2022-11-20T03:12:42;81.07;;;27.17;;
21099;SDS011;10708;50.824;4.408;2022-11-20T03:17:43;61.07;;;21.53;;
21099;SDS011;10708;50.824;4.408;2022-11-20T03:22:46;70.10;;;22.70;;
21099;SDS011;10708;50.824;4.408;2022-11-20T03:27:49;68.67;;;24.43;;
21099;SDS011;10708;50.824;4.408;2022-11-20T03:32:52;80.90;;;25.17;;
21099;SDS011;10708;50.824;4.408;2022-11-20T03:37:58;62.70;;;21.43;;
21099;SDS011;10708;50.824;4.408;2022-11-20T03:43:01;63.80;;;22.47;;
21099;SDS011;10708;50.824;4.408;2022-11-20T03:48:04;64.30;;;22.77;;
21099;SDS011;10708;50.824;4.408;2022-11-20T03:53:06;66.70;;;24.67;;
21099;SDS011;10708;50.824;4.408;2022-11-20T03:58:10;67.07;;;23.33;;
21099;SDS011;10708;50.824;4.408;2022-11-20T04:03:13;72.77;;;25.63;;
21099;SDS011;10708;50.824;4.408;2022-11-20T04:08:16;73.97;;;23.50;;
21099;SDS011;10708;50.824;4.408;2022-11-20T04:13:19;63.63;;;24.10;;
21099;SDS011;10708;50.824;4.408;2022-11-20T04:18:22;80.10;;;25.37;;
21099;SDS011;10708;50.824;4.408;2022-11-20T04:23:24;78.70;;;26.33;;
21099;SDS011;10708;50.824;4.408;2022-11-20T04:28:27;72.83;;;27.97;;
21099;SDS011;10708;50.824;4.408;2022-11-20T04:33:30;76.57;;;25.87;;
21099;SDS011;10708;50.824;4.408;2022-11-20T04:38:32;84.73;;;27.30;;
21099;SDS011;10708;50.824;4.408;2022-11-20T04:43:36;89.37;;;28.73;;
21099;SDS011;10708;50.824;4.408;2022-11-20T04:48:38;86.57;;;28.20;;
21099;SDS011;10708;50.824;4.408;2022-11-20T04:53:41;101.60;;;29.20;;
21099;SDS011;10708;50.824;4.408;2022-11-20T04:58:45;95.10;;;29.90;;
21099;SDS011;10708;50.824;4.408;2022-11-20T05:03:47;104.20;;;29.90;;
21099;SDS011;10708;50.824;4.408;2022-11-20T05:08:50;104.33;;;31.20;;
21099;SDS011;10708;50.824;4.408;2022-11-20T05:13:54;104.40;;;31.30;;
21099;SDS011;10708;50.824;4.408;2022-11-20T05:18:56;103.47;;;31.20;;
21099;SDS011;10708;50.824;4.408;2022-11-20T05:23:58;102.17;;;30.30;;
21099;SDS011;10708;50.824;4.408;2022-11-20T05:29:02;114.57;;;32.03;;
21099;SDS011;10708;50.824;4.408;2022-11-20T05:34:04;108.63;;;31.53;;
21099;SDS011;10708;50.824;4.408;2022-11-20T05:39:07;115.33;;;30.73;;
21099;SDS011;10708;50.824;4.408;2022-11-20T05:44:11;113.83;;;31.60;;
21099;SDS011;10708;50.824;4.408;2022-11-20T05:49:16;107.77;;;30.47;;
21099;SDS011;10708;50.824;4.408;2022-11-20T05:54:18;109.63;;;32.57;;
21099;SDS011;10708;50.824;4.408;2022-11-20T05:59:24;121.47;;;33.00;;
21099;SDS011;10708;50.824;4.408;2022-11-20T06:04:27;118.40;;;30.77;;
21099;SDS011;10708;50.824;4.408;2022-11-20T06:09:29;109.30;;;30.67;;
21099;SDS011;10708;50.824;4.408;2022-11-20T06:14:33;112.00;;;32.17;;
21099;SDS011;10708;50.824;4.408;2022-11-20T06:19:35;134.33;;;33.00;;
21099;SDS011;10708;50.824;4.408;2022-11-20T06:24:38;136.37;;;33.17;;
21099;SDS011;10708;50.824;4.408;2022-11-20T06:29:42;134.13;;;32.80;;
21099;SDS011;10708;50.824;4.408;2022-11-20T06:34:44;138.37;;;31.90;;
21099;SDS011;10708;50.824;4.408;2022-11-20T06:39:47;140.83;;;34.87;;
21099;SDS011;10708;50.824;4.408;2022-11-20T06:44:50;124.80;;;32.57;;
21099;SDS011;10708;50.824;4.408;2022-11-20T06:49:53;135.63;;;32.47;;
21099;SDS011;10708;50.824;4.408;2022-11-20T06:54:55;144.70;;;33.53;;
21099;SDS011;10708;50.824;4.408;2022-11-20T06:59:59;143.13;;;34.43;;
21099;SDS011;10708;50.824;4.408;2022-11-20T07:05:01;138.20;;;32.60;;
21099;SDS011;10708;50.824;4.408;2022-11-20T07:10:04;137.23;;;32.60;;
21099;SDS011;10708;50.824;4.408;2022-11-20T07:15:09;124.73;;;33.00;;
21099;SDS011;10708;50.824;4.408;2022-11-20T07:20:11;122.83;;;32.97;;
21099;SDS011;10708;50.824;4.408;2022-11-20T07:25:14;123.93;;;33.03;;
21099;SDS011;10708;50.824;4.408;2022-11-20T07:30:18;124.73;;;33.50;;
21099;SDS011;10708;50.824;4.408;2022-11-20T07:35:20;130.53;;;33.40;;
21099;SDS011;10708;50.824;4.408;2022-11-20T07:40:22;139.23;;;33.67;;
21099;SDS011;10708;50.824;4.408;2022-11-20T07:45:26;126.87;;;32.27;;
21099;SDS011;10708;50.824;4.408;2022-11-20T07:50:28;146.40;;;35.50;;
21099;SDS011;10708;50.824;4.408;2022-11-20T07:55:31;153.87;;;34.47;;
21099;SDS011;10708;50.824;4.408;2022-11-20T08:00:35;133.57;;;31.63;;
21099;SDS011;10708;50.824;4.408;2022-11-20T08:05:37;151.23;;;33.93;;
21099;SDS011;10708;50.824;4.408;2022-11-20T08:10:40;127.77;;;32.00;;
21099;SDS011;10708;50.824;4.408;2022-11-20T08:15:47;146.13;;;34.80;;
21099;SDS011;10708;50.824;4.408;2022-11-20T08:20:51;141.13;;;32.97;;
21099;SDS011;10708;50.824;4.408;2022-11-20T08:25:53;142.77;;;33.97;;
21099;SDS011;10708;50.824;4.408;2022-11-20T08:30:59;139.93;;;32.10;;
21099;SDS011;10708;50.824;4.408;2022-11-20T08:36:03;146.77;;;33.80;;
21099;SDS011;10708;50.824;4.408;2022-11-20T08:41:09;138.37;;;32.40;;
21099;SDS011;10708;50.824;4.408;2022-11-20T08:46:32;136.03;;;30.87;;
21099;SDS011;10708;50.824;4.408;2022-11-20T08:51:37;133.93;;;30.90;;
21099;SDS011;10708;50.824;4.408;2022-11-20T08:56:40;121.20;;;30.17;;
21099;SDS011;10708;50.824;4.408;2022-11-20T09:01:44;127.13;;;30.70;;
21099;SDS011;10708;50.824;4.408;2022-11-20T09:06:46;111.27;;;29.63;;
21099;SDS011;10708;50.824;4.408;2022-11-20T09:11:51;118.07;;;31.43;;
21099;SDS011;10708;50.824;4.408;2022-11-20T09:16:55;104.97;;;29.03;;
21099;SDS011;10708;50.824;4.408;2022-11-20T09:21:58;85.97;;;26.47;;
21099;SDS011;10708;50.824;4.408;2022-11-20T09:27:03;89.83;;;27.70;;
21099;SDS011;10708;50.824;4.408;2022-11-20T09:32:07;80.07;;;25.87;;
21099;SDS011;10708;50.824;4.408;2022-11-20T09:37:10;72.93;;;24.80;;
21099;SDS011;10708;50.824;4.408;2022-11-20T09:47:44;60.80;;;21.60;;
21099;SDS011;10708;50.824;4.408;2022-11-20T09:53:13;54.73;;;20.73;;
21099;SDS011;10708;50.824;4.408;2022-11-20T09:58:25;50.03;;;20.17;;
21099;SDS011;10708;50.824;4.408;2022-11-20T10:03:37;43.70;;;17.23;;
21099;SDS011;10708;50.824;4.408;2022-11-20T10:08:48;42.63;;;16.30;;
21099;SDS011;10708;50.824;4.408;2022-11-20T10:13:59;37.07;;;14.50;;
21099;SDS011;10708;50.824;4.408;2022-11-20T10:19:15;35.57;;;14.30;;
21099;SDS011;10708;50.824;4.408;2022-11-20T10:29:59;26.87;;;11.53;;
21099;SDS011;10708;50.824;4.408;2022-11-20T10:35:06;21.17;;;10.20;;
21099;SDS011;10708;50.824;4.408;2022-11-20T10:40:27;20.03;;;8.30;;
21099;SDS011;10708;50.824;4.408;2022-11-20T10:45:40;18.73;;;8.50;;
21099;SDS011;10708;50.824;4.408;2022-11-20T10:50:59;14.47;;;6.63;;
21099;SDS011;10708;50.824;4.408;2022-11-20T10:56:17;16.83;;;5.80;;
21099;SDS011;10708;50.824;4.408;2022-11-20T11:01:22;13.07;;;4.93;;
21099;SDS011;10708;50.824;4.408;2022-11-20T11:06:30;11.90;;;4.77;;
21099;SDS011;10708;50.824;4.408;2022-11-20T11:11:37;11.33;;;5.13;;
21099;SDS011;10708;50.824;4.408;2022-11-20T11:16:48;16.97;;;6.33;;
21099;SDS011;10708;50.824;4.408;2022-11-20T11:21:54;8.83;;;3.97;;
21099;SDS011;10708;50.824;4.408;2022-11-20T11:26:58;10.27;;;4.17;;
21099;SDS011;10708;50.824;4.408;2022-11-20T11:32:06;11.57;;;3.73;;
21099;SDS011;10708;50.824;4.408;2022-11-20T11:37:12;9.97;;;3.80;;
21099;SDS011;10708;50.824;4.408;2022-11-20T11:42:19;7.33;;;3.93;;
21099;SDS011;10708;50.824;4.408;2022-11-20T11:47:23;9.13;;;3.50;;
21099;SDS011;10708;50.824;4.408;2022-11-20T11:52:28;5.77;;;3.30;;
21099;SDS011;10708;50.824;4.408;2022-11-20T11:57:40;9.07;;;3.20;;
21099;SDS011;10708;50.824;4.408;2022-11-20T12:08:15;4.93;;;2.90;;
21099;SDS011;10708;50.824;4.408;2022-11-20T12:13:27;7.53;;;3.70;;
21099;SDS011;10708;50.824;4.408;2022-11-20T12:18:38;6.93;;;2.93;;
21099;SDS011;10708;50.824;4.408;2022-11-20T12:23:46;7.13;;;3.03;;
21099;SDS011;10708;50.824;4.408;2022-11-20T12:29:04;12.10;;;3.00;;
21099;SDS011;10708;50.824;4.408;2022-11-20T12:34:17;6.83;;;3.10;;
21099;SDS011;10708;50.824;4.408;2022-11-20T12:39:42;11.63;;;3.97;;
21099;SDS011;10708;50.824;4.408;2022-11-20T12:44:59;8.63;;;4.17;;
21099;SDS011;10708;50.824;4.408;2022-11-20T12:50:14;8.30;;;4.13;;
21099;SDS011;10708;50.824;4.408;2022-11-20T12:55:33;12.30;;;3.93;;
21099;SDS011;10708;50.824;4.408;2022-11-20T13:00:51;9.57;;;4.13;;
21099;SDS011;10708;50.824;4.408;2022-11-20T13:05:59;9.10;;;4.00;;
21099;SDS011;10708;50.824;4.408;2022-11-20T13:11:14;10.70;;;5.03;;
21099;SDS011;10708;50.824;4.408;2022-11-20T13:16:23;8.77;;;4.57;;
21099;SDS011;10708;50.824;4.408;2022-11-20T13:21:35;12.47;;;4.77;;
21099;SDS011;10708;50.824;4.408;2022-11-20T13:26:40;9.43;;;4.17;;
21099;SDS011;10708;50.824;4.408;2022-11-20T13:31:43;10.80;;;4.53;;
21099;SDS011;10708;50.824;4.408;2022-11-20T13:36:50;8.63;;;4.50;;
21099;SDS011;10708;50.824;4.408;2022-11-20T13:41:55;6.63;;;4.10;;
21099;SDS011;10708;50.824;4.408;2022-11-20T13:46:58;6.27;;;3.60;;
21099;SDS011;10708;50.824;4.408;2022-11-20T13:52:04;7.40;;;4.10;;
21099;SDS011;10708;50.824;4.408;2022-11-20T13:57:33;8.37;;;3.37;;
21099;SDS011;10708;50.824;4.408;2022-11-20T14:03:06;5.40;;;3.30;;
21099;SDS011;10708;50.824;4.408;2022-11-20T14:08:14;5.80;;;3.43;;
21099;SDS011;10708;50.824;4.408;2022-11-20T14:13:26;5.07;;;3.40;;
21099;SDS011;10708;50.824;4.408;2022-11-20T14:18:29;4.37;;;2.80;;
21099;SDS011;10708;50.824;4.408;2022-11-20T14:23:31;5.30;;;3.00;;
21099;SDS011;10708;50.824;4.408;2022-11-20T14:28:35;5.67;;;3.10;;
21099;SDS011;10708;50.824;4.408;2022-11-20T14:33:37;6.17;;;2.50;;
21099;SDS011;10708;50.824;4.408;2022-11-20T14:38:39;4.27;;;3.07;;
21099;SDS011;10708;50.824;4.408;2022-11-20T14:43:46;5.23;;;3.63;;
21099;SDS011;10708;50.824;4.408;2022-11-20T14:48:52;6.63;;;3.90;;
21099;SDS011;10708;50.824;4.408;2022-11-20T14:54:08;5.60;;;3.80;;
21099;SDS011;10708;50.824;4.408;2022-11-20T14:59:22;7.33;;;4.03;;
21099;SDS011;10708;50.824;4.408;2022-11-20T15:04:26;8.17;;;3.90;;
21099;SDS011;10708;50.824;4.408;2022-11-20T15:09:28;6.70;;;4.43;;
21099;SDS011;10708;50.824;4.408;2022-11-20T15:14:32;7.40;;;4.30;;
21099;SDS011;10708;50.824;4.408;2022-11-20T15:19:34;5.73;;;3.53;;
21099;SDS011;10708;50.824;4.408;2022-11-20T15:24:37;8.67;;;4.40;;
21099;SDS011;10708;50.824;4.408;2022-11-20T15:29:42;8.83;;;4.47;;
21099;SDS011;10708;50.824;4.408;2022-11-20T15:34:45;7.47;;;5.07;;
21099;SDS011;10708;50.824;4.408;2022-11-20T15:39:50;15.87;;;5.40;;
21099;SDS011;10708;50.824;4.408;2022-11-20T15:45:00;8.33;;;4.57;;
21099;SDS011;10708;50.824;4.408;2022-11-20T15:50:03;9.97;;;4.80;;
21099;SDS011;10708;50.824;4.408;2022-11-20T15:55:11;11.60;;;5.43;;
21099;SDS011;10708;50.824;4.408;2022-11-20T16:00:16;10.00;;;5.10;;
21099;SDS011;10708;50.824;4.408;2022-11-20T16:10:38;9.80;;;4.60;;
21099;SDS011;10708;50.824;4.408;2022-11-20T16:15:44;18.90;;;4.77;;
21099;SDS011;10708;50.824;4.408;2022-11-20T16:31:31;16.43;;;4.40;;
21099;SDS011;10708;50.824;4.408;2022-11-20T16:36:34;13.80;;;4.83;;
21099;SDS011;10708;50.824;4.408;2022-11-20T16:46:51;16.77;;;4.80;;
21099;SDS011;10708;50.824;4.408;2022-11-20T17:02:40;15.20;;;4.33;;
21099;SDS011;10708;50.824;4.408;2022-11-20T17:07:43;14.10;;;4.53;;
21099;SDS011;10708;50.824;4.408;2022-11-20T17:12:45;19.80;;;5.10;;
21099;SDS011;10708;50.824;4.408;2022-11-20T17:17:49;15.93;;;4.20;;
21099;SDS011;10708;50.824;4.408;2022-11-20T17:22:54;19.80;;;5.20;;
21099;SDS011;10708;50.824;4.408;2022-11-20T17:27:59;16.27;;;4.07;;
21099;SDS011;10708;50.824;4.408;2022-11-20T17:33:03;21.67;;;5.97;;
21099;SDS011;10708;50.824;4.408;2022-11-20T17:38:05;16.60;;;4.50;;
21099;SDS011;10708;50.824;4.408;2022-11-20T17:43:08;17.93;;;4.53;;
21099;SDS011;10708;50.824;4.408;2022-11-20T17:48:11;31.93;;;8.80;;
21099;SDS011;10708;50.824;4.408;2022-11-20T17:53:14;15.83;;;4.13;;
21099;SDS011;10708;50.824;4.408;2022-11-20T17:58:16;21.07;;;6.83;;
21099;SDS011;10708;50.824;4.408;2022-11-20T18:03:20;19.30;;;6.47;;
21099;SDS011;10708;50.824;4.408;2022-11-20T18:08:26;19.87;;;6.10;;
21099;SDS011;10708;50.824;4.408;2022-11-20T18:13:28;14.63;;;3.67;;
21099;SDS011;10708;50.824;4.408;2022-11-20T18:18:54;14.90;;;4.10;;
21099;SDS011;10708;50.824;4.408;2022-11-20T18:24:01;20.30;;;6.57;;
21099;SDS011;10708;50.824;4.408;2022-11-20T18:29:04;16.37;;;6.40;;
21099;SDS011;10708;50.824;4.408;2022-11-20T18:34:08;18.63;;;5.53;;
21099;SDS011;10708;50.824;4.408;2022-11-20T18:39:12;26.80;;;6.30;;
21099;SDS011;10708;50.824;4.408;2022-11-20T18:44:16;19.67;;;5.17;;
21099;SDS011;10708;50.824;4.408;2022-11-20T18:49:38;22.70;;;6.23;;
21099;SDS011;10708;50.824;4.408;2022-11-20T18:54:40;21.90;;;5.53;;
21099;SDS011;10708;50.824;4.408;2022-11-20T18:59:43;16.87;;;5.20;;
21099;SDS011;10708;50.824;4.408;2022-11-20T19:04:46;17.43;;;5.17;;
21099;SDS011;10708;50.824;4.408;2022-11-20T19:09:50;29.33;;;6.50;;
21099;SDS011;10708;50.824;4.408;2022-11-20T19:14:53;29.17;;;4.67;;
21099;SDS011;10708;50.824;4.408;2022-11-20T19:19:57;25.47;;;5.50;;
21099;SDS011;10708;50.824;4.408;2022-11-20T19:25:00;27.27;;;5.33;;
21099;SDS011;10708;50.824;4.408;2022-11-20T19:30:03;30.07;;;6.30;;
21099;SDS011;10708;50.824;4.408;2022-11-20T19:35:07;33.53;;;9.57;;
21099;SDS011;10708;50.824;4.408;2022-11-20T19:40:10;27.00;;;5.40;;
21099;SDS011;10708;50.824;4.408;2022-11-20T19:45:12;20.07;;;4.73;;
21099;SDS011;10708;50.824;4.408;2022-11-20T19:50:16;25.03;;;5.30;;
21099;SDS011;10708;50.824;4.408;2022-11-20T19:55:19;29.00;;;5.30;;
21099;SDS011;10708;50.824;4.408;2022-11-20T20:00:22;24.57;;;5.30;;
21099;SDS011;10708;50.824;4.408;2022-11-20T20:05:26;27.13;;;4.77;;
21099;SDS011;10708;50.824;4.408;2022-11-20T20:10:29;19.10;;;4.97;;
21099;SDS011;10708;50.824;4.408;2022-11-20T20:15:31;17.10;;;4.63;;
21099;SDS011;10708;50.824;4.408;2022-11-20T20:20:35;18.43;;;4.10;;
21099;SDS011;10708;50.824;4.408;2022-11-20T20:25:38;19.90;;;4.73;;
21099;SDS011;10708;50.824;4.408;2022-11-20T20:30:41;24.00;;;4.90;;
21099;SDS011;10708;50.824;4.408;2022-11-20T20:35:44;23.77;;;4.47;;
21099;SDS011;10708;50.824;4.408;2022-11-20T20:40:47;32.80;;;5.87;;
21099;SDS011;10708;50.824;4.408;2022-11-20T20:45:50;19.37;;;4.80;;
21099;SDS011;10708;50.824;4.408;2022-11-20T20:50:58;23.57;;;4.80;;
21099;SDS011;10708;50.824;4.408;2022-11-20T20:56:02;21.67;;;4.57;;
21099;SDS011;10708;50.824;4.408;2022-11-20T21:01:06;26.80;;;5.70;;
21099;SDS011;10708;50.824;4.408;2022-11-20T21:06:11;14.83;;;4.53;;
21099;SDS011;10708;50.824;4.408;2022-11-20T21:11:15;17.07;;;4.63;;
21099;SDS011;10708;50.824;4.408;2022-11-20T21:16:19;22.57;;;4.57;;
21099;SDS011;10708;50.824;4.408;2022-11-20T21:21:24;23.20;;;4.67;;
21099;SDS011;10708;50.824;4.408;2022-11-20T21:26:44;19.10;;;4.67;;
21099;SDS011;10708;50.824;4.408;2022-11-20T21:31:49;14.90;;;4.27;;
21099;SDS011;10708;50.824;4.408;2022-11-20T21:36:54;19.50;;;5.40;;
21099;SDS011;10708;50.824;4.408;2022-11-20T21:41:56;22.33;;;4.50;;
21099;SDS011;10708;50.824;4.408;2022-11-20T21:46:58;17.23;;;4.73;;
21099;SDS011;10708;50.824;4.408;2022-11-20T21:52:02;17.77;;;4.43;;
21099;SDS011;10708;50.824;4.408;2022-11-20T21:57:05;11.20;;;3.93;;
21099;SDS011;10708;50.824;4.408;2022-11-20T22:02:09;19.90;;;4.10;;
21099;SDS011;10708;50.824;4.408;2022-11-20T22:07:13;14.37;;;3.87;;
21099;SDS011;10708;50.824;4.408;2022-11-20T22:12:16;18.97;;;3.80;;
21099;SDS011;10708;50.824;4.408;2022-11-20T22:17:19;20.07;;;3.80;;
21099;SDS011;10708;50.824;4.408;2022-11-20T22:22:44;11.80;;;3.10;;
21099;SDS011;10708;50.824;4.408;2022-11-20T22:27:46;19.40;;;4.27;;
21099;SDS011;10708;50.824;4.408;2022-11-20T22:32:48;12.63;;;3.03;;
21099;SDS011;10708;50.824;4.408;2022-11-20T22:37:55;20.47;;;3.50;;
21099;SDS011;10708;50.824;4.408;2022-11-20T22:42:57;14.67;;;3.40;;
21099;SDS011;10708;50.824;4.408;2022-11-20T22:48:00;16.60;;;3.70;;
21099;SDS011;10708;50.824;4.408;2022-11-20T22:53:04;13.63;;;3.37;;
21099;SDS011;10708;50.824;4.408;2022-11-20T22:58:07;12.57;;;3.33;;
21099;SDS011;10708;50.824;4.408;2022-11-20T23:03:10;12.00;;;3.33;;
21099;SDS011;10708;50.824;4.408;2022-11-20T23:08:14;9.23;;;2.90;;
21099;SDS011;10708;50.824;4.408;2022-11-20T23:13:16;9.70;;;3.20;;
21099;SDS011;10708;50.824;4.408;2022-11-20T23:18:19;8.83;;;2.80;;
21099;SDS011;10708;50.824;4.408;2022-11-20T23:23:23;9.87;;;2.93;;
21099;SDS011;10708;50.824;4.408;2022-11-20T23:28:25;8.17;;;2.70;;
21099;SDS011;10708;50.824;4.408;2022-11-20T23:33:28;11.13;;;2.90;;
21099;SDS011;10708;50.824;4.408;2022-11-20T23:38:32;10.53;;;3.27;;
21099;SDS011;10708;50.824;4.408;2022-11-20T23:43:35;10.13;;;3.57;;
21099;SDS011;10708;50.824;4.408;2022-11-20T23:48:38;12.60;;;4.30;;
21099;SDS011;10708;50.824;4.408;2022-11-20T23:53:41;12.77;;;3.33;;
21099;SDS011;10708;50.824;4.408;2022-11-20T23:58:44;12.90;;;3.60;;
